Time;durP1;ratioP1;P1;durP2;ratioP2;P2;SDS_P1;SDS_P2;PMS_P1;PMS_P2;Temp;Humidity;BMP_temperature;BMP_pressure;BME280_temperature;BME280_humidity;BME280_pressure;Samples;Min_cycle;Max_cycle;Signal;HPM_P1;HPM_P2
2023/12/24 00:02:07;;;;;;;11.43;10.82;;;;;;;;;;5070746;28;20016;-57
2023/12/24 00:04:33;;;;;;;10.93;10.43;;;;;;;;;;5068099;28;20052;-57
2023/12/24 00:06:58;;;;;;;10.90;10.40;;;;;;;;;;5080173;28;20071;-58
2023/12/24 00:09:23;;;;;;;10.73;10.23;;;;;;;;;;5067116;28;20100;-56
2023/12/24 00:11:49;;;;;;;11.00;10.50;;;;;;;;;;5071082;28;20043;-57
2023/12/24 00:14:14;;;;;;;11.00;10.50;;;;;;;;;;5067958;28;20364;-55
2023/12/24 00:16:42;;;;;;;10.85;10.35;;;;;;;;;;5060525;28;20071;-56
2023/12/24 00:19:08;;;;;;;10.82;10.32;;;;;;;;;;5070732;28;20028;-57
2023/12/24 00:21:33;;;;;;;11.00;10.50;;;;;;;;;;5068381;28;20016;-54
2023/12/24 00:23:59;;;;;;;10.98;10.48;;;;;;;;;;5070317;28;20021;-58
2023/12/24 00:26:24;;;;;;;10.90;10.40;;;;;;;;;;5069329;28;20098;-60
2023/12/24 00:28:51;;;;;;;10.75;10.25;;;;;;;;;;5065099;28;20039;-57
2023/12/24 00:31:16;;;;;;;10.73;10.23;;;;;;;;;;5068835;28;20025;-55
2023/12/24 00:33:42;;;;;;;10.90;10.40;;;;;;;;;;5070714;28;20512;-57
2023/12/24 00:36:07;;;;;;;10.95;10.45;;;;;;;;;;5064164;28;20024;-57
2023/12/24 00:38:32;;;;;;;11.32;10.75;;;;;;;;;;5070183;28;20021;-57
2023/12/24 00:40:58;;;;;;;11.25;10.68;;;;;;;;;;5074528;28;20020;-58
2023/12/24 00:43:24;;;;;;;11.00;10.50;;;;;;;;;;5070487;28;20019;-56
2023/12/24 00:45:49;;;;;;;10.30;9.82;;;;;;;;;;5066507;28;20100;-58
2023/12/24 00:48:14;;;;;;;10.68;10.18;;;;;;;;;;5070142;28;20016;-58
2023/12/24 00:50:40;;;;;;;10.80;10.30;;;;;;;;;;5063301;28;20424;-58
2023/12/24 00:53:05;;;;;;;10.77;10.27;;;;;;;;;;5067953;28;20063;-57
2023/12/24 00:55:32;;;;;;;10.98;10.48;;;;;;;;;;5069725;28;20162;-55
2023/12/24 00:57:57;;;;;;;10.75;10.25;;;;;;;;;;5070498;28;20032;-57
2023/12/24 01:00:22;;;;;;;11.40;10.85;;;;;;;;;;5068509;28;20536;-57
2023/12/24 01:02:48;;;;;;;11.07;10.57;;;;;;;;;;5068554;28;20559;-60
2023/12/24 01:05:13;;;;;;;10.68;10.18;;;;;;;;;;5070785;28;20024;-58
2023/12/24 01:07:38;;;;;;;10.68;10.18;;;;;;;;;;5075240;28;20020;-59
2023/12/24 01:10:05;;;;;;;10.50;10.00;;;;;;;;;;5074802;28;20086;-58
2023/12/24 01:12:32;;;;;;;11.00;10.50;;;;;;;;;;5071682;28;20388;-57
2023/12/24 01:14:58;;;;;;;10.90;10.40;;;;;;;;;;5066910;28;20050;-58
2023/12/24 01:17:23;;;;;;;11.15;10.65;;;;;;;;;;5071507;28;20435;-59
2023/12/24 01:19:48;;;;;;;11.05;10.55;;;;;;;;;;5068792;28;20021;-56
2023/12/24 01:22:14;;;;;;;11.02;10.50;;;;;;;;;;5071256;28;20021;-53
2023/12/24 01:24:39;;;;;;;11.48;10.88;;;;;;;;;;5073550;28;20046;-58
2023/12/24 01:27:08;;;;;;;11.00;10.50;;;;;;;;;;5070075;28;20023;-57
2023/12/24 01:29:34;;;;;;;11.23;10.73;;;;;;;;;;5073448;28;20031;-58
2023/12/24 01:32:00;;;;;;;11.13;10.60;;;;;;;;;;5072502;28;20035;-59
2023/12/24 01:34:27;;;;;;;11.00;10.50;;;;;;;;;;5072342;28;20107;-56
2023/12/24 01:36:52;;;;;;;11.48;10.88;;;;;;;;;;5071035;28;20062;-59
2023/12/24 01:39:19;;;;;;;10.88;10.38;;;;;;;;;;5073082;28;20008;-56
2023/12/24 01:41:45;;;;;;;10.95;10.45;;;;;;;;;;5074935;28;20150;-57
2023/12/24 01:44:11;;;;;;;10.80;10.30;;;;;;;;;;5071861;28;20391;-58
2023/12/24 01:46:37;;;;;;;11.00;10.50;;;;;;;;;;5072703;28;20107;-57
2023/12/24 01:49:02;;;;;;;11.48;10.88;;;;;;;;;;5071469;28;20048;-56
2023/12/24 01:51:30;;;;;;;11.10;10.60;;;;;;;;;;5074478;28;20036;-61
2023/12/24 01:53:55;;;;;;;11.07;10.57;;;;;;;;;;5073034;28;20388;-55
2023/12/24 01:56:21;;;;;;;10.57;10.07;;;;;;;;;;5073107;28;20017;-59
2023/12/24 01:58:47;;;;;;;11.30;10.80;;;;;;;;;;5072596;28;20392;-57
2023/12/24 02:01:12;;;;;;;10.75;10.25;;;;;;;;;;5071166;28;20028;-57
2023/12/24 02:03:37;;;;;;;11.85;11.25;;;;;;;;;;5069192;28;20489;-58
2023/12/24 02:06:03;;;;;;;11.07;10.57;;;;;;;;;;5068672;28;20032;-56
2023/12/24 02:08:29;;;;;;;10.90;10.40;;;;;;;;;;5068499;28;20025;-55
2023/12/24 02:10:54;;;;;;;11.20;10.70;;;;;;;;;;5064612;28;20074;-51
2023/12/24 02:13:20;;;;;;;10.88;10.38;;;;;;;;;;5070509;28;20013;-57
2023/12/24 02:15:46;;;;;;;10.75;10.25;;;;;;;;;;5071348;28;20055;-57
2023/12/24 02:18:11;;;;;;;11.18;10.65;;;;;;;;;;5072262;28;20024;-60
2023/12/24 02:20:37;;;;;;;10.80;10.30;;;;;;;;;;5072567;28;20472;-58
2023/12/24 02:23:02;;;;;;;10.93;10.43;;;;;;;;;;5071939;28;20472;-57
2023/12/24 02:25:28;;;;;;;10.70;10.20;;;;;;;;;;5071251;28;20608;-58
2023/12/24 02:27:53;;;;;;;11.38;10.77;;;;;;;;;;5071678;28;20050;-59
2023/12/24 02:30:20;;;;;;;11.10;10.60;;;;;;;;;;5072002;28;20019;-57
2023/12/24 02:32:48;;;;;;;11.95;11.35;;;;;;;;;;5063406;28;20029;-57
2023/12/24 02:35:14;;;;;;;10.35;9.85;;;;;;;;;;5061865;28;20119;-59
2023/12/24 02:37:40;;;;;;;10.50;10.00;;;;;;;;;;5071368;28;20105;-59
2023/12/24 02:40:06;;;;;;;10.75;10.25;;;;;;;;;;5062200;28;20496;-58
2023/12/24 02:42:31;;;;;;;10.70;10.20;;;;;;;;;;5068749;28;20023;-57
2023/12/24 02:44:57;;;;;;;10.68;10.18;;;;;;;;;;5070676;28;20059;-60
2023/12/24 02:47:22;;;;;;;11.63;11.02;;;;;;;;;;5071154;28;20028;-56
2023/12/24 02:49:47;;;;;;;10.70;10.20;;;;;;;;;;5071023;28;20377;-59
2023/12/24 02:52:13;;;;;;;10.88;10.38;;;;;;;;;;5073431;28;20040;-57
2023/12/24 02:54:38;;;;;;;11.30;10.70;;;;;;;;;;5071330;28;20031;-57
2023/12/24 02:57:04;;;;;;;11.55;10.95;;;;;;;;;;5071633;28;20039;-56
2023/12/24 02:59:29;;;;;;;10.90;10.40;;;;;;;;;;5070041;28;20468;-56
2023/12/24 03:01:54;;;;;;;11.63;11.02;;;;;;;;;;5071583;28;20507;-59
2023/12/24 03:04:19;;;;;;;10.77;10.27;;;;;;;;;;5068227;28;20079;-56
2023/12/24 03:06:45;;;;;;;10.98;10.48;;;;;;;;;;5063309;28;20056;-57
2023/12/24 03:09:10;;;;;;;10.73;10.23;;;;;;;;;;5071217;28;20099;-59
2023/12/24 03:11:36;;;;;;;11.00;10.50;;;;;;;;;;5064544;28;20070;-57
2023/12/24 03:14:01;;;;;;;11.38;10.88;;;;;;;;;;5069737;28;20025;-56
2023/12/24 03:16:26;;;;;;;11.60;11.00;;;;;;;;;;5071040;28;20051;-55
2023/12/24 03:18:52;;;;;;;11.32;10.77;;;;;;;;;;5068292;28;20106;-55
2023/12/24 03:21:17;;;;;;;10.90;10.40;;;;;;;;;;5070807;28;20024;-57
2023/12/24 03:23:42;;;;;;;10.88;10.38;;;;;;;;;;5066664;28;20020;-57
2023/12/24 03:26:18;;;;;;;11.10;10.60;;;;;;;;;;5065712;28;20033;-56
2023/12/24 03:28:44;;;;;;;10.93;10.43;;;;;;;;;;5068421;28;20108;-56
2023/12/24 03:31:11;;;;;;;10.90;10.40;;;;;;;;;;5070832;28;20115;-56
2023/12/24 03:33:36;;;;;;;10.88;10.38;;;;;;;;;;5067886;28;20112;-56
2023/12/24 03:36:01;;;;;;;10.55;10.05;;;;;;;;;;5071701;28;20429;-58
2023/12/24 03:38:27;;;;;;;10.63;10.13;;;;;;;;;;5070673;28;20427;-58
2023/12/24 03:40:52;;;;;;;10.90;10.40;;;;;;;;;;5065296;28;20020;-57
2023/12/24 03:43:17;;;;;;;10.43;9.93;;;;;;;;;;5064662;28;20013;-57
2023/12/24 03:45:43;;;;;;;10.90;10.40;;;;;;;;;;5070804;28;20379;-59
2023/12/24 03:48:11;;;;;;;10.77;10.27;;;;;;;;;;5070497;28;20051;-57
2023/12/24 03:50:37;;;;;;;10.95;10.45;;;;;;;;;;5073393;28;20044;-58
2023/12/24 03:53:02;;;;;;;11.00;10.50;;;;;;;;;;5068221;28;20074;-58
2023/12/24 03:55:28;;;;;;;11.18;10.68;;;;;;;;;;5069333;28;20032;-56
2023/12/24 03:57:53;;;;;;;11.13;10.63;;;;;;;;;;5067762;28;20590;-57
2023/12/24 04:00:18;;;;;;;10.90;10.40;;;;;;;;;;5067414;28;20413;-57
2023/12/24 04:02:44;;;;;;;11.70;11.10;;;;;;;;;;5068251;28;20043;-58
2023/12/24 04:05:09;;;;;;;10.85;10.35;;;;;;;;;;5068159;28;20023;-55
2023/12/24 04:07:34;;;;;;;10.77;10.27;;;;;;;;;;5069955;28;20390;-59
2023/12/24 04:10:00;;;;;;;10.60;10.10;;;;;;;;;;5063911;28;20074;-58
2023/12/24 04:12:25;;;;;;;10.57;10.07;;;;;;;;;;5070537;28;20029;-56
2023/12/24 04:14:50;;;;;;;11.15;10.60;;;;;;;;;;5068994;28;20035;-57
2023/12/24 04:17:16;;;;;;;11.38;10.80;;;;;;;;;;5068747;28;20103;-55
2023/12/24 04:19:41;;;;;;;11.40;10.80;;;;;;;;;;5069038;28;20040;-57
2023/12/24 04:22:06;;;;;;;10.85;10.35;;;;;;;;;;5069147;28;20590;-56
2023/12/24 04:24:32;;;;;;;10.93;10.43;;;;;;;;;;5062228;28;20100;-58
2023/12/24 04:26:57;;;;;;;11.20;10.70;;;;;;;;;;5070659;28;20027;-55
2023/12/24 04:29:23;;;;;;;11.18;10.68;;;;;;;;;;5068759;28;20024;-55
2023/12/24 04:31:48;;;;;;;10.88;10.38;;;;;;;;;;5059878;28;20025;-56
2023/12/24 04:34:14;;;;;;;10.70;10.20;;;;;;;;;;5069159;28;20024;-57
2023/12/24 04:36:39;;;;;;;11.10;10.60;;;;;;;;;;5066473;28;20081;-55
2023/12/24 04:39:04;;;;;;;10.82;10.32;;;;;;;;;;5068963;28;20025;-56
2023/12/24 04:41:30;;;;;;;10.85;10.35;;;;;;;;;;5074578;28;20020;-56
2023/12/24 04:43:55;;;;;;;12.20;11.60;;;;;;;;;;5069878;28;20415;-55
2023/12/24 04:46:21;;;;;;;10.90;10.40;;;;;;;;;;5074333;28;20024;-58
2023/12/24 04:48:46;;;;;;;11.30;10.75;;;;;;;;;;5070624;28;20024;-59
2023/12/24 04:51:12;;;;;;;10.85;10.35;;;;;;;;;;5075226;28;20060;-53
2023/12/24 04:53:37;;;;;;;11.27;10.75;;;;;;;;;;5071635;28;20414;-58
2023/12/24 04:56:03;;;;;;;10.77;10.27;;;;;;;;;;5069953;28;20088;-58
2023/12/24 04:58:28;;;;;;;10.90;10.40;;;;;;;;;;5062834;28;20051;-58
2023/12/24 05:00:53;;;;;;;11.20;10.70;;;;;;;;;;5074013;28;20028;-56
2023/12/24 05:03:19;;;;;;;11.30;10.80;;;;;;;;;;5063712;28;20016;-56
2023/12/24 05:05:44;;;;;;;10.90;10.40;;;;;;;;;;5071299;28;20020;-57
2023/12/24 05:08:10;;;;;;;10.63;10.13;;;;;;;;;;5073071;28;20016;-58
2023/12/24 05:10:35;;;;;;;10.95;10.45;;;;;;;;;;5066392;28;20030;-58
2023/12/24 05:13:00;;;;;;;11.55;10.95;;;;;;;;;;5069914;28;20430;-56
2023/12/24 05:15:26;;;;;;;11.40;10.90;;;;;;;;;;5073544;28;20484;-55
2023/12/24 05:17:51;;;;;;;11.45;10.85;;;;;;;;;;5066978;28;20418;-58
2023/12/24 05:20:17;;;;;;;11.18;10.68;;;;;;;;;;5071518;28;20016;-57
2023/12/24 05:22:42;;;;;;;11.27;10.77;;;;;;;;;;5073605;28;20016;-57
2023/12/24 05:25:07;;;;;;;11.50;10.90;;;;;;;;;;5073032;28;20050;-57
2023/12/24 05:27:33;;;;;;;11.20;10.70;;;;;;;;;;5073582;28;20039;-57
2023/12/24 05:29:58;;;;;;;11.50;10.90;;;;;;;;;;5071056;28;20391;-56
2023/12/24 05:32:23;;;;;;;11.65;11.05;;;;;;;;;;5076452;28;20383;-55
2023/12/24 05:34:49;;;;;;;11.18;10.68;;;;;;;;;;5071616;28;20374;-58
2023/12/24 05:37:14;;;;;;;11.00;10.50;;;;;;;;;;5069037;28;20424;-57
2023/12/24 05:39:42;;;;;;;11.90;11.30;;;;;;;;;;5066545;28;20013;-56
2023/12/24 05:42:08;;;;;;;11.05;10.55;;;;;;;;;;5070764;28;20017;-53
2023/12/24 05:44:34;;;;;;;11.50;10.90;;;;;;;;;;5073232;28;20035;-56
2023/12/24 05:47:01;;;;;;;11.40;10.85;;;;;;;;;;5073300;28;20150;-57
2023/12/24 05:49:27;;;;;;;10.82;10.32;;;;;;;;;;5067423;28;20090;-56
2023/12/24 05:51:54;;;;;;;11.52;10.93;;;;;;;;;;5072911;28;20468;-57
2023/12/24 05:54:19;;;;;;;10.90;10.40;;;;;;;;;;5071780;28;20074;-55
2023/12/24 05:56:44;;;;;;;11.60;11.00;;;;;;;;;;5072806;28;20066;-55
2023/12/24 05:59:10;;;;;;;11.20;10.70;;;;;;;;;;5071449;28;20017;-58
2023/12/24 06:01:35;;;;;;;11.00;10.50;;;;;;;;;;5072362;28;20020;-58
2023/12/24 06:04:00;;;;;;;11.25;10.75;;;;;;;;;;5066185;28;20055;-57
2023/12/24 06:06:26;;;;;;;11.20;10.70;;;;;;;;;;5071944;28;20511;-56
2023/12/24 06:08:51;;;;;;;11.07;10.57;;;;;;;;;;5077023;28;20017;-57
2023/12/24 06:11:17;;;;;;;11.35;10.75;;;;;;;;;;5072600;28;20032;-56
2023/12/24 06:13:42;;;;;;;10.40;9.90;;;;;;;;;;5071977;28;20017;-57
2023/12/24 06:16:07;;;;;;;10.20;9.70;;;;;;;;;;5069188;28;20044;-56
2023/12/24 06:18:33;;;;;;;10.15;9.65;;;;;;;;;;5069932;28;20077;-57
2023/12/24 06:20:58;;;;;;;10.20;9.70;;;;;;;;;;5071875;28;20067;-57
2023/12/24 06:23:24;;;;;;;9.98;9.57;;;;;;;;;;5069070;28;20020;-56
2023/12/24 06:25:49;;;;;;;9.98;9.57;;;;;;;;;;5072138;28;20021;-58
2023/12/24 06:28:14;;;;;;;10.40;9.90;;;;;;;;;;5070464;28;20028;-57
2023/12/24 06:30:40;;;;;;;10.30;9.80;;;;;;;;;;5069417;28;20064;-55
2023/12/24 06:33:05;;;;;;;10.98;10.48;;;;;;;;;;5072008;28;20024;-57
2023/12/24 06:35:31;;;;;;;11.32;10.82;;;;;;;;;;5069588;28;20020;-56
2023/12/24 06:37:57;;;;;;;11.80;11.20;;;;;;;;;;5071416;28;20036;-55
2023/12/24 06:40:22;;;;;;;12.13;11.52;;;;;;;;;;5069787;28;20052;-55
2023/12/24 06:42:48;;;;;;;11.50;11.00;;;;;;;;;;5071863;28;20048;-57
2023/12/24 06:45:13;;;;;;;11.60;11.10;;;;;;;;;;5070651;28;20822;-56
2023/12/24 06:47:39;;;;;;;11.82;11.27;;;;;;;;;;5071812;28;20034;-58
2023/12/24 06:50:05;;;;;;;12.25;11.65;;;;;;;;;;5064414;28;20017;-57
2023/12/24 06:52:32;;;;;;;11.52;11.02;;;;;;;;;;5072720;28;20549;-58
2023/12/24 06:54:58;;;;;;;12.02;11.43;;;;;;;;;;5063712;28;20416;-57
2023/12/24 06:57:23;;;;;;;11.90;11.30;;;;;;;;;;5071388;28;20047;-56
2023/12/24 06:59:49;;;;;;;11.70;11.10;;;;;;;;;;5070690;28;20043;-58
2023/12/24 07:02:14;;;;;;;11.88;11.27;;;;;;;;;;5070935;28;20427;-58
2023/12/24 07:04:40;;;;;;;11.55;11.05;;;;;;;;;;5070081;28;20609;-56
2023/12/24 07:07:05;;;;;;;12.05;11.45;;;;;;;;;;5072814;28;20084;-58
2023/12/24 07:09:30;;;;;;;12.23;11.63;;;;;;;;;;5071358;28;20020;-58
2023/12/24 07:11:56;;;;;;;11.77;11.18;;;;;;;;;;5071104;28;20170;-57
2023/12/24 07:14:21;;;;;;;11.05;10.55;;;;;;;;;;5070716;28;20055;-55
2023/12/24 07:16:46;;;;;;;11.18;10.65;;;;;;;;;;5069145;28;20140;-56
2023/12/24 07:19:12;;;;;;;11.80;11.20;;;;;;;;;;5068278;28;20070;-56
2023/12/24 07:21:37;;;;;;;12.02;11.43;;;;;;;;;;5071207;28;20028;-57
2023/12/24 07:24:03;;;;;;;11.40;10.85;;;;;;;;;;5064333;28;20392;-55
2023/12/24 07:26:28;;;;;;;11.60;11.00;;;;;;;;;;5070604;28;20037;-58
2023/12/24 07:28:53;;;;;;;11.20;10.70;;;;;;;;;;5071138;28;20029;-58
2023/12/24 07:31:19;;;;;;;11.32;10.80;;;;;;;;;;5071184;28;20024;-55
2023/12/24 07:33:44;;;;;;;11.88;11.27;;;;;;;;;;5068353;28;20020;-55
2023/12/24 07:36:09;;;;;;;11.15;10.65;;;;;;;;;;5071414;28;20021;-59
2023/12/24 07:38:35;;;;;;;10.95;10.45;;;;;;;;;;5070625;28;20531;-59
2023/12/24 07:41:00;;;;;;;11.07;10.57;;;;;;;;;;5069724;28;20066;-55
2023/12/24 07:43:27;;;;;;;11.63;11.02;;;;;;;;;;5070931;28;20479;-60
2023/12/24 07:45:52;;;;;;;11.63;11.02;;;;;;;;;;5068506;28;20476;-56
2023/12/24 07:48:18;;;;;;;11.38;10.88;;;;;;;;;;5072282;28;20031;-55
2023/12/24 07:50:43;;;;;;;11.52;10.93;;;;;;;;;;5070029;28;20013;-59
2023/12/24 07:53:08;;;;;;;10.90;10.40;;;;;;;;;;5070897;28;20020;-59
2023/12/24 07:55:34;;;;;;;12.73;12.02;;;;;;;;;;5068127;28;20023;-58
2023/12/24 07:57:59;;;;;;;11.65;11.05;;;;;;;;;;5070647;28;20016;-56
2023/12/24 08:00:24;;;;;;;11.63;11.02;;;;;;;;;;5066906;28;20020;-59
2023/12/24 08:02:51;;;;;;;11.10;10.60;;;;;;;;;;5063535;28;20029;-59
2023/12/24 08:05:16;;;;;;;11.30;10.80;;;;;;;;;;5069079;28;20040;-59
2023/12/24 08:07:41;;;;;;;11.63;11.02;;;;;;;;;;5070163;28;20013;-58
2023/12/24 08:10:07;;;;;;;11.63;11.02;;;;;;;;;;5067912;28;20536;-56
2023/12/24 08:12:33;;;;;;;11.10;10.60;;;;;;;;;;5071051;28;20055;-57
2023/12/24 08:14:58;;;;;;;10.55;10.05;;;;;;;;;;5070296;28;20017;-57
2023/12/24 08:17:23;;;;;;;10.57;10.07;;;;;;;;;;5074580;28;20048;-57
2023/12/24 08:19:49;;;;;;;11.10;10.60;;;;;;;;;;5072158;28;20017;-57
2023/12/24 08:22:14;;;;;;;10.70;10.20;;;;;;;;;;5072853;28;20008;-58
2023/12/24 08:24:39;;;;;;;10.82;10.32;;;;;;;;;;5072376;28;20078;-58
2023/12/24 08:27:05;;;;;;;11.23;10.73;;;;;;;;;;5069581;28;20560;-58
2023/12/24 08:29:31;;;;;;;12.25;11.65;;;;;;;;;;5069619;28;20442;-59
2023/12/24 08:31:57;;;;;;;12.32;11.73;;;;;;;;;;5073934;28;20032;-58
2023/12/24 08:34:22;;;;;;;12.70;12.10;;;;;;;;;;5074019;28;20031;-56
2023/12/24 08:36:48;;;;;;;12.55;11.95;;;;;;;;;;5073254;28;20043;-58
2023/12/24 08:39:13;;;;;;;13.02;12.43;;;;;;;;;;5070629;28;20017;-57
2023/12/24 08:41:38;;;;;;;12.35;11.75;;;;;;;;;;5074329;28;20013;-59
2023/12/24 08:44:04;;;;;;;11.82;11.32;;;;;;;;;;5072417;28;20032;-57
2023/12/24 08:46:29;;;;;;;11.60;11.10;;;;;;;;;;5071708;28;20045;-58
2023/12/24 08:48:54;;;;;;;11.57;11.07;;;;;;;;;;5073823;28;20024;-58
2023/12/24 08:51:20;;;;;;;12.65;12.05;;;;;;;;;;5069761;28;20017;-57
2023/12/24 08:53:45;;;;;;;12.50;11.90;;;;;;;;;;5073758;28;20036;-58
2023/12/24 08:56:10;;;;;;;12.18;11.57;;;;;;;;;;5066744;28;20013;-59
2023/12/24 08:58:36;;;;;;;12.93;12.32;;;;;;;;;;5071815;28;20020;-58
2023/12/24 09:01:01;;;;;;;12.30;11.70;;;;;;;;;;5064951;28;20020;-59
2023/12/24 09:03:26;;;;;;;12.68;12.07;;;;;;;;;;5072716;28;20027;-57
2023/12/24 09:05:52;;;;;;;12.40;11.80;;;;;;;;;;5063726;28;20476;-57
2023/12/24 09:08:17;;;;;;;12.65;12.05;;;;;;;;;;5079589;28;20025;-57
2023/12/24 09:10:43;;;;;;;12.60;12.00;;;;;;;;;;5072135;28;20559;-56
2023/12/24 09:13:08;;;;;;;11.95;11.45;;;;;;;;;;5072619;28;20090;-58
2023/12/24 09:15:33;;;;;;;12.57;11.98;;;;;;;;;;5073479;28;20454;-58
2023/12/24 09:17:58;;;;;;;11.80;11.30;;;;;;;;;;5072947;28;20429;-59
2023/12/24 09:20:24;;;;;;;12.40;11.80;;;;;;;;;;5073396;28;20557;-58
2023/12/24 09:22:49;;;;;;;11.90;11.40;;;;;;;;;;5073276;28;20005;-60
2023/12/24 09:25:15;;;;;;;12.27;11.68;;;;;;;;;;5069712;28;20095;-57
2023/12/24 09:27:40;;;;;;;12.52;11.93;;;;;;;;;;5071107;28;20024;-59
2023/12/24 09:30:05;;;;;;;12.35;11.75;;;;;;;;;;5078583;28;20033;-58
2023/12/24 09:32:31;;;;;;;12.70;12.10;;;;;;;;;;5068909;28;20092;-59
2023/12/24 09:34:57;;;;;;;12.63;12.02;;;;;;;;;;5073156;28;20418;-58
2023/12/24 09:37:23;;;;;;;12.40;11.80;;;;;;;;;;5071067;28;20017;-59
2023/12/24 09:39:49;;;;;;;12.82;12.23;;;;;;;;;;5078182;28;20063;-58
2023/12/24 09:42:15;;;;;;;12.20;11.60;;;;;;;;;;5073259;28;20431;-58
2023/12/24 09:44:40;;;;;;;11.85;11.35;;;;;;;;;;5072820;28;20077;-57
2023/12/24 09:47:06;;;;;;;12.57;11.98;;;;;;;;;;5068654;28;20032;-57
2023/12/24 09:49:31;;;;;;;13.95;13.25;;;;;;;;;;5072536;28;20440;-58
2023/12/24 09:51:59;;;;;;;12.05;11.48;;;;;;;;;;5071266;28;20021;-58
2023/12/24 09:54:24;;;;;;;12.38;11.77;;;;;;;;;;5071606;28;20020;-59
2023/12/24 09:56:49;;;;;;;12.73;12.13;;;;;;;;;;5071215;28;20468;-59
2023/12/24 09:59:15;;;;;;;11.75;11.25;;;;;;;;;;5073284;28;20032;-60
2023/12/24 10:01:42;;;;;;;12.60;12.00;;;;;;;;;;5070729;28;20066;-56
2023/12/24 10:04:07;;;;;;;12.20;11.60;;;;;;;;;;5068549;28;20031;-59
2023/12/24 10:06:33;;;;;;;12.90;12.30;;;;;;;;;;5072046;28;20467;-59
2023/12/24 10:08:58;;;;;;;12.35;11.75;;;;;;;;;;5072290;28;20495;-58
2023/12/24 10:11:24;;;;;;;12.18;11.57;;;;;;;;;;5069039;28;20024;-54
2023/12/24 10:13:59;;;;;;;12.13;11.52;;;;;;;;;;5069957;28;20021;-56
2023/12/24 10:16:27;;;;;;;11.60;11.10;;;;;;;;;;5065579;28;20118;-55
2023/12/24 10:18:58;;;;;;;12.88;12.27;;;;;;;;;;5071606;28;20024;-59
2023/12/24 10:21:24;;;;;;;12.32;11.73;;;;;;;;;;5071798;28;20092;-58
2023/12/24 10:23:50;;;;;;;12.60;12.00;;;;;;;;;;5066590;28;20049;-58
2023/12/24 10:26:15;;;;;;;12.20;11.60;;;;;;;;;;5067285;28;20057;-56
2023/12/24 10:28:48;;;;;;;12.68;12.07;;;;;;;;;;5072744;28;20017;-61
2023/12/24 10:31:14;;;;;;;11.98;11.38;;;;;;;;;;5072220;28;20090;-58
2023/12/24 10:33:40;;;;;;;12.20;11.60;;;;;;;;;;5067445;28;20033;-58
2023/12/24 10:36:06;;;;;;;12.32;11.73;;;;;;;;;;5070594;28;20099;-57
2023/12/24 10:38:31;;;;;;;12.48;11.88;;;;;;;;;;5072065;28;20399;-58
2023/12/24 10:40:57;;;;;;;11.73;11.20;;;;;;;;;;5071514;28;20020;-58
2023/12/24 10:43:23;;;;;;;11.45;10.95;;;;;;;;;;5068918;28;20027;-58
2023/12/24 10:45:48;;;;;;;12.13;11.52;;;;;;;;;;5071759;28;20012;-58
2023/12/24 10:48:14;;;;;;;13.48;12.77;;;;;;;;;;5077885;28;20153;-57
2023/12/24 10:50:39;;;;;;;11.70;11.15;;;;;;;;;;5063929;28;20019;-58
2023/12/24 10:53:05;;;;;;;11.98;11.38;;;;;;;;;;5069225;28;20107;-57
2023/12/24 10:55:31;;;;;;;11.90;11.30;;;;;;;;;;5069656;28;20025;-58
2023/12/24 10:58:19;;;;;;;12.23;11.63;;;;;;;;;;5069246;28;20428;-57
2023/12/24 11:00:45;;;;;;;11.70;11.20;;;;;;;;;;5069956;28;20547;-59
2023/12/24 11:03:10;;;;;;;12.45;11.85;;;;;;;;;;5071390;28;20020;-59
2023/12/24 11:05:46;;;;;;;12.10;11.50;;;;;;;;;;5065676;28;20032;-58
2023/12/24 11:08:20;;;;;;;11.90;11.30;;;;;;;;;;5069794;28;20119;-60
2023/12/24 11:10:53;;;;;;;11.40;10.90;;;;;;;;;;5065768;28;20408;-59
2023/12/24 11:13:41;;;;;;;12.10;11.50;;;;;;;;;;5065695;28;20391;-58
2023/12/24 11:16:07;;;;;;;11.85;11.32;;;;;;;;;;5068063;28;20044;-58
2023/12/24 11:18:46;;;;;;;12.13;11.52;;;;;;;;;;5068653;28;20448;-62
2023/12/24 11:21:12;;;;;;;12.27;11.68;;;;;;;;;;5064059;28;20114;-57
2023/12/24 11:23:39;;;;;;;12.13;11.52;;;;;;;;;;5069149;28;20020;-57
2023/12/24 11:26:24;;;;;;;12.27;11.68;;;;;;;;;;5070273;28;20032;-60
2023/12/24 11:28:49;;;;;;;12.00;11.40;;;;;;;;;;5068705;28;20522;-57
2023/12/24 11:31:21;;;;;;;12.60;12.00;;;;;;;;;;5070615;28;20033;-59
2023/12/24 11:33:47;;;;;;;13.23;12.52;;;;;;;;;;5068036;28;20028;-58
2023/12/24 11:36:13;;;;;;;12.23;11.63;;;;;;;;;;5069712;28;20096;-56
2023/12/24 11:38:39;;;;;;;12.73;12.13;;;;;;;;;;5066755;28;20386;-59
2023/12/24 11:41:05;;;;;;;12.20;11.60;;;;;;;;;;5069971;28;20112;-56
2023/12/24 11:43:30;;;;;;;11.65;11.15;;;;;;;;;;5066985;28;20067;-57
2023/12/24 11:45:56;;;;;;;11.85;11.30;;;;;;;;;;5069119;28;20032;-58
2023/12/24 11:48:22;;;;;;;11.32;10.82;;;;;;;;;;5068902;28;20059;-58
2023/12/24 11:51:00;;;;;;;11.98;11.38;;;;;;;;;;5070637;28;20017;-58
2023/12/24 11:53:25;;;;;;;11.45;10.95;;;;;;;;;;5068916;28;20021;-58
2023/12/24 11:56:06;;;;;;;12.48;11.88;;;;;;;;;;5068573;28;20025;-57
2023/12/24 11:58:31;;;;;;;11.85;11.30;;;;;;;;;;5069419;28;20016;-56
2023/12/24 12:01:02;;;;;;;12.10;11.50;;;;;;;;;;5066391;28;20009;-56
2023/12/24 12:03:28;;;;;;;13.10;12.43;;;;;;;;;;5061347;28;20021;-59
2023/12/24 12:05:53;;;;;;;12.82;12.23;;;;;;;;;;5064147;28;20159;-57
2023/12/24 12:08:18;;;;;;;11.68;11.18;;;;;;;;;;5070286;28;20024;-59
2023/12/24 12:10:44;;;;;;;12.05;11.45;;;;;;;;;;5066683;28;20466;-58
2023/12/24 12:13:09;;;;;;;11.80;11.30;;;;;;;;;;5082759;28;20020;-58
2023/12/24 12:15:34;;;;;;;12.40;11.80;;;;;;;;;;5069401;28;20057;-58
2023/12/24 12:18:00;;;;;;;12.60;12.00;;;;;;;;;;5069330;28;20025;-58
2023/12/24 12:20:25;;;;;;;12.45;11.85;;;;;;;;;;5070115;28;20044;-55
2023/12/24 12:22:51;;;;;;;12.02;11.43;;;;;;;;;;5073001;28;20103;-58
2023/12/24 12:25:17;;;;;;;11.95;11.35;;;;;;;;;;5068225;28;20066;-59
2023/12/24 12:27:42;;;;;;;12.18;11.57;;;;;;;;;;5067719;28;20054;-58
2023/12/24 12:30:08;;;;;;;12.32;11.73;;;;;;;;;;5068732;28;20028;-57
2023/12/24 12:32:34;;;;;;;12.30;11.70;;;;;;;;;;5070160;28;20174;-56
2023/12/24 12:35:00;;;;;;;11.90;11.30;;;;;;;;;;5071176;28;20111;-57
2023/12/24 12:37:25;;;;;;;12.07;11.48;;;;;;;;;;5069008;28;20437;-57
2023/12/24 12:39:51;;;;;;;12.32;11.73;;;;;;;;;;5065294;28;20017;-58
2023/12/24 12:42:17;;;;;;;11.60;11.10;;;;;;;;;;5069999;28;20065;-58
2023/12/24 12:44:42;;;;;;;12.15;11.55;;;;;;;;;;5068250;28;20016;-57
2023/12/24 12:47:08;;;;;;;12.55;11.95;;;;;;;;;;5069274;28;20537;-58
2023/12/24 12:49:33;;;;;;;12.00;11.40;;;;;;;;;;5068456;28;20020;-53
2023/12/24 12:51:58;;;;;;;12.25;11.65;;;;;;;;;;5069932;28;20020;-52
2023/12/24 12:54:24;;;;;;;11.98;11.38;;;;;;;;;;5071093;28;20476;-59
2023/12/24 12:56:49;;;;;;;12.48;11.88;;;;;;;;;;5068142;28;20043;-58
2023/12/24 12:59:27;;;;;;;12.23;11.63;;;;;;;;;;5072274;28;20024;-58
2023/12/24 13:01:55;;;;;;;12.02;11.43;;;;;;;;;;5073449;28;20479;-57
2023/12/24 13:04:30;;;;;;;12.23;11.63;;;;;;;;;;5064339;28;20435;-58
2023/12/24 13:07:02;;;;;;;11.82;11.23;;;;;;;;;;5073661;28;20031;-58
2023/12/24 13:09:32;;;;;;;12.07;11.48;;;;;;;;;;5069503;28;20038;-58
2023/12/24 13:12:06;;;;;;;11.38;10.88;;;;;;;;;;5067308;28;20449;-59
2023/12/24 13:14:32;;;;;;;11.80;11.20;;;;;;;;;;5073344;28;20070;-58
2023/12/24 13:17:11;;;;;;;12.07;11.48;;;;;;;;;;5067414;28;20048;-59
2023/12/24 13:19:38;;;;;;;12.23;11.63;;;;;;;;;;5073416;28;20431;-58
2023/12/24 13:22:07;;;;;;;11.75;11.23;;;;;;;;;;5073043;28;20032;-56
2023/12/24 13:24:32;;;;;;;11.98;11.38;;;;;;;;;;5071379;28;20050;-58
2023/12/24 13:26:58;;;;;;;12.20;11.60;;;;;;;;;;5068534;28;20120;-59
2023/12/24 13:29:24;;;;;;;11.90;11.30;;;;;;;;;;5073447;28;20031;-57
2023/12/24 13:31:49;;;;;;;11.43;10.93;;;;;;;;;;5066625;28;20103;-55
2023/12/24 13:34:20;;;;;;;12.05;11.45;;;;;;;;;;5068303;28;20366;-58
2023/12/24 13:36:45;;;;;;;11.52;11.02;;;;;;;;;;5070491;28;20391;-59
2023/12/24 13:39:11;;;;;;;11.32;10.82;;;;;;;;;;5071708;28;20020;-58
2023/12/24 13:41:36;;;;;;;12.00;11.40;;;;;;;;;;5073312;28;20013;-56
2023/12/24 13:44:01;;;;;;;12.07;11.48;;;;;;;;;;5069686;28;20487;-57
2023/12/24 13:46:27;;;;;;;11.60;11.10;;;;;;;;;;5072987;28;20683;-58
2023/12/24 13:48:52;;;;;;;12.35;11.75;;;;;;;;;;5062919;28;20069;-58
2023/12/24 13:51:18;;;;;;;13.30;12.60;;;;;;;;;;5067966;28;20092;-58
2023/12/24 13:53:47;;;;;;;11.90;11.30;;;;;;;;;;5070110;28;20017;-57
2023/12/24 13:56:13;;;;;;;12.00;11.40;;;;;;;;;;5073079;28;20012;-58
2023/12/24 13:58:38;;;;;;;11.57;11.02;;;;;;;;;;5068376;28;20020;-57
2023/12/24 14:01:03;;;;;;;11.85;11.25;;;;;;;;;;5072877;28;20070;-58
2023/12/24 14:03:29;;;;;;;12.05;11.45;;;;;;;;;;5071642;28;20070;-56
2023/12/24 14:05:55;;;;;;;11.60;11.05;;;;;;;;;;5064478;28;20104;-60
2023/12/24 14:08:21;;;;;;;11.10;10.60;;;;;;;;;;5071182;28;20032;-57
2023/12/24 14:10:46;;;;;;;11.30;10.80;;;;;;;;;;5071872;28;20039;-57
2023/12/24 14:13:11;;;;;;;11.63;11.10;;;;;;;;;;5069009;28;20437;-57